createdAt,value
2022-12-29T00:02:50.723Z,4.63
2022-12-29T00:17:52.751Z,5.25
2022-12-29T00:33:13.249Z,6.22
2022-12-29T00:48:15.162Z,5.88
2022-12-29T01:03:17.242Z,5.32
2022-12-29T01:18:20.479Z,5.47
2022-12-29T01:33:22.397Z,4.95
2022-12-29T01:48:24.847Z,3.85
2022-12-29T02:03:29.966Z,4.97
2022-12-29T02:19:16.068Z,3.58
2022-12-29T02:34:22.802Z,5.17
2022-12-29T02:49:45.336Z,5.00
2022-12-29T03:05:14.202Z,4.85
2022-12-29T03:20:22.334Z,6.85
2022-12-29T03:35:28.608Z,4.70
2022-12-29T03:50:30.511Z,5.20
2022-12-29T04:05:32.815Z,3.72
2022-12-29T04:20:53.310Z,5.03
2022-12-29T04:35:55.716Z,3.97
2022-12-29T04:50:57.662Z,3.95
2022-12-29T05:05:59.617Z,5.30
2022-12-29T05:21:01.557Z,4.88
2022-12-29T05:36:08.288Z,5.28
2022-12-29T05:51:10.207Z,7.22
2022-12-29T06:06:12.124Z,6.68
2022-12-29T06:21:14.074Z,5.55
2022-12-29T06:36:16.336Z,6.20
2022-12-29T06:51:19.421Z,9.10
2022-12-29T07:06:21.861Z,5.88
2022-12-29T07:21:24.059Z,6.00
2022-12-29T07:36:29.393Z,7.88
2022-12-29T07:51:36.100Z,9.35
2022-12-29T08:06:38.929Z,11.00
2022-12-29T08:21:41.497Z,6.00
2022-12-29T08:36:43.534Z,7.72
2022-12-29T08:51:45.476Z,10.48
2022-12-29T09:06:47.501Z,9.48
2022-12-29T09:21:49.422Z,7.68
2022-12-29T09:36:51.437Z,9.35
2022-12-29T09:51:57.795Z,8.30
2022-12-29T10:07:29.283Z,10.00
2022-12-29T10:22:58.999Z,5.55
2022-12-29T10:38:16.016Z,6.10
2022-12-29T10:53:23.977Z,4.38
2022-12-29T11:08:29.120Z,4.03
2022-12-29T11:23:37.590Z,7.15
2022-12-29T11:38:53.289Z,6.13
2022-12-29T11:53:59.089Z,4.95
2022-12-29T12:09:15.649Z,9.20
2022-12-29T12:24:40.683Z,7.75
2022-12-29T12:39:57.440Z,8.90
2022-12-29T12:55:14.720Z,8.57
2022-12-29T13:10:37.633Z,6.47
2022-12-29T13:25:59.797Z,5.55
2022-12-29T13:41:14.157Z,7.60
2022-12-29T13:56:22.151Z,5.35
2022-12-29T14:11:37.250Z,11.20
2022-12-29T14:26:39.219Z,9.82
2022-12-29T14:41:41.495Z,10.00
2022-12-29T14:56:43.927Z,13.80
2022-12-29T15:11:52.311Z,15.23
2022-12-29T15:26:58.251Z,15.50
2022-12-29T15:42:05.000Z,16.33
2022-12-29T15:57:25.331Z,16.73
2022-12-29T16:12:37.662Z,18.85
2022-12-29T16:27:43.145Z,19.30
2022-12-29T16:42:50.968Z,19.73
2022-12-29T17:12:56.714Z,17.60
2022-12-29T17:28:12.680Z,16.45
2022-12-29T17:43:16.174Z,16.33
2022-12-29T17:58:23.820Z,16.70
2022-12-29T18:13:40.332Z,19.63
2022-12-29T18:28:49.530Z,16.77
2022-12-29T18:43:51.847Z,18.77
2022-12-29T18:58:53.904Z,16.88
2022-12-29T19:13:55.868Z,19.83
2022-12-29T19:28:58.666Z,21.90
2022-12-29T19:44:00.955Z,20.88
2022-12-29T19:59:02.890Z,20.50
2022-12-29T20:14:04.999Z,20.00
2022-12-29T20:29:07.144Z,20.00
2022-12-29T20:44:09.117Z,20.13
2022-12-29T20:59:27.538Z,21.85
2022-12-29T21:14:30.271Z,18.13
2022-12-29T21:29:32.206Z,22.52
2022-12-29T21:44:52.621Z,22.98
2022-12-29T22:00:13.086Z,23.30
2022-12-29T22:15:15.129Z,19.02
2022-12-29T22:30:17.885Z,21.95
2022-12-29T22:45:19.849Z,21.45
2022-12-29T23:00:21.831Z,16.13
2022-12-29T23:15:23.747Z,20.05
2022-12-29T23:30:25.710Z,15.98
2022-12-29T23:45:27.633Z,15.18
